createdAt,value
2017-12-20T00:01:59.496Z,13.75
2017-12-20T00:04:34.363Z,14.27
2017-12-20T00:07:03.052Z,14.90
2017-12-20T00:09:32.516Z,18.42
2017-12-20T00:12:01.203Z,14.82
2017-12-20T00:14:29.878Z,14.35
2017-12-20T00:16:58.607Z,14.95
2017-12-20T00:19:27.300Z,13.18
2017-12-20T00:21:56.779Z,12.57
2017-12-20T00:24:25.468Z,12.68
2017-12-20T00:26:55.059Z,13.30
2017-12-20T00:29:23.755Z,12.27
2017-12-20T00:31:52.444Z,12.35
2017-12-20T00:34:21.132Z,11.75
2017-12-20T00:36:50.636Z,11.02
2017-12-20T00:39:20.172Z,11.30
2017-12-20T00:41:48.856Z,10.93
2017-12-20T00:44:17.528Z,10.45
2017-12-20T00:46:46.231Z,10.50
2017-12-20T00:49:15.683Z,10.40
2017-12-20T00:51:44.378Z,10.35
2017-12-20T00:54:13.063Z,9.30
2017-12-20T00:56:41.782Z,10.07
2017-12-20T00:59:10.462Z,9.93
2017-12-20T01:01:39.183Z,9.00
2017-12-20T01:04:08.627Z,7.90
2017-12-20T01:06:37.304Z,9.07
2017-12-20T01:09:10.303Z,7.40
2017-12-20T01:11:39.904Z,6.90
2017-12-20T01:14:08.591Z,7.18
2017-12-20T01:16:37.266Z,6.12
2017-12-20T01:19:05.943Z,7.43
2017-12-20T01:21:34.615Z,6.72
2017-12-20T01:24:03.290Z,7.00
2017-12-20T01:26:32.731Z,7.35
2017-12-20T01:29:01.447Z,7.30
2017-12-20T01:31:30.119Z,7.40
2017-12-20T01:33:58.793Z,8.00
2017-12-20T01:36:27.471Z,8.05
2017-12-20T01:38:56.151Z,6.40
2017-12-20T01:41:24.831Z,6.68
2017-12-20T01:43:53.498Z,6.93
2017-12-20T01:46:22.183Z,7.55
2017-12-20T01:48:50.851Z,7.50
2017-12-20T01:51:20.536Z,8.68
2017-12-20T01:53:49.215Z,8.60
2017-12-20T01:56:18.804Z,10.02
2017-12-20T01:58:48.296Z,11.12
2017-12-20T02:01:16.975Z,12.65
2017-12-20T02:03:45.671Z,13.15
2017-12-20T02:06:14.357Z,13.20
2017-12-20T02:08:43.044Z,13.75
2017-12-20T02:11:17.898Z,12.35
2017-12-20T02:13:46.587Z,13.30
2017-12-20T02:16:16.118Z,12.07
2017-12-20T02:18:45.576Z,12.35
2017-12-20T02:21:14.251Z,12.45
2017-12-20T02:23:42.959Z,12.52
2017-12-20T02:26:16.431Z,12.20
2017-12-20T02:28:45.162Z,13.35
2017-12-20T02:31:13.843Z,11.35
2017-12-20T02:33:42.531Z,12.55
2017-12-20T02:36:14.084Z,13.43
2017-12-20T02:38:43.613Z,12.98
2017-12-20T02:41:13.070Z,11.35
2017-12-20T02:43:41.753Z,10.82
2017-12-20T02:46:10.440Z,9.45
2017-12-20T02:48:39.115Z,9.50
2017-12-20T02:51:14.139Z,5.90
2017-12-20T02:53:49.052Z,5.35
2017-12-20T02:56:17.767Z,5.00
2017-12-20T02:58:46.455Z,4.47
2017-12-20T03:01:21.382Z,4.10
2017-12-20T03:03:51.704Z,7.32
2017-12-20T03:06:21.283Z,11.18
2017-12-20T03:08:49.971Z,10.30
2017-12-20T03:11:18.646Z,10.85
2017-12-20T03:13:47.470Z,11.40
2017-12-20T03:16:16.117Z,10.18
2017-12-20T03:18:45.568Z,10.40
2017-12-20T03:21:20.447Z,8.70
2017-12-20T03:23:49.900Z,8.55
2017-12-20T03:26:18.574Z,8.75
2017-12-20T03:28:47.296Z,9.65
2017-12-20T03:31:22.103Z,8.68
2017-12-20T03:33:51.614Z,7.72
2017-12-20T03:36:20.286Z,6.60
2017-12-20T03:38:48.959Z,6.30
2017-12-20T03:41:17.639Z,5.75
2017-12-20T03:43:47.176Z,5.40
2017-12-20T03:46:15.857Z,6.37
2017-12-20T03:48:44.526Z,5.78
2017-12-20T03:51:13.203Z,5.75
2017-12-20T03:53:41.876Z,5.03
2017-12-20T03:56:11.612Z,4.40
2017-12-20T03:58:40.282Z,4.10
2017-12-20T04:01:16.088Z,4.20
2017-12-20T04:03:44.773Z,4.28
2017-12-20T04:06:13.448Z,4.80
2017-12-20T04:08:42.128Z,4.20
2017-12-20T04:11:10.811Z,4.25
2017-12-20T04:13:45.804Z,3.87
2017-12-20T04:16:14.470Z,4.37
2017-12-20T04:18:50.155Z,4.87
2017-12-20T04:21:18.831Z,4.60
2017-12-20T04:23:48.345Z,4.05
2017-12-20T04:26:17.007Z,4.82
2017-12-20T04:28:45.727Z,4.75
2017-12-20T04:31:14.402Z,4.15
2017-12-20T04:33:43.076Z,4.25
2017-12-20T04:36:19.977Z,3.95
2017-12-20T04:38:48.660Z,4.00
2017-12-20T04:41:23.551Z,4.57
2017-12-20T04:43:52.222Z,3.70
2017-12-20T04:46:21.763Z,4.18
2017-12-20T04:48:50.438Z,3.83
2017-12-20T04:51:19.174Z,3.90
2017-12-20T04:53:47.856Z,3.80
2017-12-20T04:56:18.136Z,3.50
2017-12-20T04:58:46.811Z,3.30
2017-12-20T05:01:16.303Z,3.45
2017-12-20T05:03:46.469Z,3.30
2017-12-20T05:06:15.155Z,3.55
2017-12-20T05:08:44.821Z,5.00
2017-12-20T05:11:14.263Z,9.48
2017-12-20T05:13:55.538Z,9.93
2017-12-20T05:16:24.212Z,7.45
2017-12-20T05:18:52.891Z,8.25
2017-12-20T05:21:21.559Z,7.35
2017-12-20T05:23:54.127Z,6.75
2017-12-20T05:26:23.566Z,7.57
2017-12-20T05:28:53.115Z,6.20
2017-12-20T05:31:21.805Z,6.65
2017-12-20T05:33:50.474Z,8.35
2017-12-20T05:36:25.322Z,7.20
2017-12-20T05:38:53.991Z,6.30
2017-12-20T05:41:22.674Z,5.78
2017-12-20T05:43:57.594Z,7.80
2017-12-20T05:46:32.400Z,6.37
2017-12-20T05:49:01.075Z,7.03
2017-12-20T05:51:29.774Z,6.37
2017-12-20T05:53:59.379Z,7.62
2017-12-20T05:56:28.397Z,7.28
2017-12-20T05:59:00.147Z,5.90
2017-12-20T06:01:34.943Z,5.30
2017-12-20T06:04:03.627Z,4.00
2017-12-20T06:06:39.298Z,4.00
2017-12-20T06:09:07.986Z,5.32
2017-12-20T06:12:00.720Z,6.28
2017-12-20T06:14:41.406Z,5.50
2017-12-20T06:17:33.188Z,8.52
2017-12-20T06:20:19.202Z,9.02
2017-12-20T06:22:52.825Z,10.93
2017-12-20T06:25:38.790Z,10.95
2017-12-20T06:28:30.418Z,12.27
2017-12-20T06:31:18.991Z,11.10
2017-12-20T06:34:09.797Z,12.60
2017-12-20T06:36:54.486Z,12.05
2017-12-20T06:39:36.965Z,10.88
2017-12-20T06:42:21.269Z,11.80
2017-12-20T06:45:10.175Z,11.73
2017-12-20T06:47:44.256Z,11.93
2017-12-20T06:50:30.965Z,13.18
2017-12-20T06:53:11.867Z,11.20
2017-12-20T06:55:53.455Z,13.25
2017-12-20T07:01:12.546Z,11.40
2017-12-20T07:03:55.046Z,12.02
2017-12-20T07:06:37.759Z,11.98
2017-12-20T07:09:21.803Z,17.35
2017-12-20T07:12:15.663Z,13.38
2017-12-20T07:15:10.532Z,9.02
2017-12-20T07:18:02.172Z,7.25
2017-12-20T07:20:49.066Z,3.62
2017-12-20T07:23:21.800Z,3.08
2017-12-20T07:26:10.549Z,2.47
2017-12-20T07:29:12.664Z,2.75
2017-12-20T07:31:51.135Z,2.53
2017-12-20T07:34:51.837Z,3.60
2017-12-20T07:37:39.422Z,4.50
2017-12-20T07:40:22.359Z,3.72
2017-12-20T07:46:00.984Z,11.73
2017-12-20T07:48:53.251Z,15.40
2017-12-20T07:51:29.970Z,11.60
2017-12-20T07:54:16.714Z,12.13
2017-12-20T07:57:02.360Z,10.52
2017-12-20T07:59:40.776Z,11.68
2017-12-20T08:02:23.489Z,8.75
2017-12-20T08:05:13.079Z,7.97
2017-12-20T08:08:02.231Z,5.10
2017-12-20T08:10:36.137Z,3.42
2017-12-20T08:16:46.016Z,3.60
2017-12-20T08:22:12.621Z,4.00
2017-12-20T08:24:42.054Z,8.35
2017-12-20T08:27:11.611Z,8.85
2017-12-20T08:29:57.647Z,8.20
2017-12-20T08:32:26.346Z,8.95
2017-12-20T08:35:01.215Z,9.20
2017-12-20T08:37:29.947Z,9.25
2017-12-20T08:39:58.616Z,7.35
2017-12-20T08:42:33.591Z,7.47
2017-12-20T08:45:08.519Z,7.82
2017-12-20T08:47:37.210Z,4.72
2017-12-20T08:50:12.123Z,6.47
2017-12-20T08:52:40.834Z,7.10
2017-12-20T08:55:15.824Z,7.30
2017-12-20T08:57:51.518Z,8.95
2017-12-20T09:00:20.191Z,8.38
2017-12-20T09:02:55.771Z,7.80
2017-12-20T09:05:24.443Z,8.35
2017-12-20T09:07:53.119Z,8.65
2017-12-20T09:10:22.795Z,7.82
2017-12-20T09:12:57.632Z,7.20
2017-12-20T09:15:32.446Z,8.20
2017-12-20T09:18:01.132Z,7.57
2017-12-20T09:20:29.811Z,7.37
2017-12-20T09:22:58.484Z,7.37
2017-12-20T09:25:27.940Z,7.35
2017-12-20T09:27:57.467Z,8.30
2017-12-20T09:30:32.275Z,8.30
2017-12-20T09:33:07.059Z,9.05
2017-12-20T09:35:36.539Z,8.30
2017-12-20T09:38:05.207Z,7.62
2017-12-20T09:40:40.947Z,6.32
2017-12-20T09:43:09.618Z,7.80
2017-12-20T09:45:38.352Z,8.25
2017-12-20T09:48:06.978Z,7.90
2017-12-20T09:50:35.667Z,7.57
2017-12-20T09:53:04.347Z,7.90
2017-12-20T09:55:39.292Z,8.80
2017-12-20T09:58:07.987Z,8.43
2017-12-20T10:00:36.679Z,9.00
2017-12-20T10:03:05.391Z,11.15
2017-12-20T10:05:34.071Z,9.52
2017-12-20T10:08:08.996Z,10.82
2017-12-20T10:10:43.908Z,7.57
2017-12-20T10:13:12.624Z,7.32
2017-12-20T10:15:41.297Z,7.78
2017-12-20T10:18:09.967Z,8.25
2017-12-20T10:20:45.613Z,8.05
2017-12-20T10:23:20.495Z,7.55
2017-12-20T10:25:49.944Z,6.93
2017-12-20T10:28:18.629Z,7.68
2017-12-20T10:30:47.337Z,7.47
2017-12-20T10:33:23.074Z,7.62
2017-12-20T10:35:57.915Z,8.02
2017-12-20T10:38:32.836Z,8.18
2017-12-20T10:41:01.534Z,8.35
2017-12-20T10:43:36.344Z,9.20
2017-12-20T10:46:05.050Z,8.32
2017-12-20T10:48:33.759Z,9.63
2017-12-20T10:51:03.217Z,9.73
2017-12-20T10:53:38.069Z,9.70
2017-12-20T10:56:06.743Z,9.48
2017-12-20T10:58:35.431Z,9.93
2017-12-20T11:01:04.106Z,10.20
2017-12-20T11:03:32.793Z,9.32
2017-12-20T11:06:07.726Z,10.02
2017-12-20T11:08:36.413Z,9.68
2017-12-20T11:11:05.086Z,10.70
2017-12-20T11:13:33.798Z,12.25
2017-12-20T11:16:03.278Z,10.73
2017-12-20T11:18:31.955Z,11.20
2017-12-20T11:21:00.641Z,9.60
2017-12-20T11:23:35.459Z,12.25
2017-12-20T11:26:05.001Z,11.10
2017-12-20T11:28:36.702Z,10.30
2017-12-20T11:31:10.146Z,10.00
2017-12-20T11:33:39.648Z,12.25
2017-12-20T11:36:08.366Z,11.43
2017-12-20T11:38:37.053Z,12.10
2017-12-20T11:41:05.731Z,11.35
2017-12-20T11:43:40.733Z,10.63
2017-12-20T11:46:15.542Z,10.82
2017-12-20T11:48:44.243Z,11.00
2017-12-20T11:51:12.932Z,13.02
2017-12-20T11:53:42.443Z,12.13
2017-12-20T11:56:17.271Z,12.05
2017-12-20T11:58:52.123Z,14.68
2017-12-20T12:01:26.928Z,14.45
2017-12-20T12:03:55.640Z,14.68
2017-12-20T12:06:30.612Z,13.75
2017-12-20T12:09:02.551Z,11.40
2017-12-20T12:11:32.015Z,9.50
2017-12-20T12:14:07.714Z,12.88
2017-12-20T12:16:42.611Z,12.35
2017-12-20T12:19:11.343Z,12.40
2017-12-20T12:21:40.040Z,8.88
2017-12-20T12:24:15.016Z,9.57
2017-12-20T12:26:50.762Z,10.70
2017-12-20T12:29:19.452Z,9.77
2017-12-20T12:31:54.257Z,9.40
2017-12-20T12:34:38.950Z,9.23
2017-12-20T12:37:18.487Z,10.35
2017-12-20T12:39:47.359Z,12.32
2017-12-20T12:42:16.083Z,22.15
2017-12-20T12:44:44.775Z,19.15
2017-12-20T12:47:14.249Z,14.10
2017-12-20T12:49:49.139Z,12.00
2017-12-20T12:52:17.848Z,12.35
2017-12-20T12:54:46.587Z,10.98
2017-12-20T12:57:21.429Z,10.95
2017-12-20T12:59:50.099Z,11.52
2017-12-20T13:02:19.623Z,11.55
2017-12-20T13:04:48.433Z,12.18
2017-12-20T13:07:29.926Z,11.68
2017-12-20T13:09:59.639Z,12.95
2017-12-20T13:12:53.274Z,12.73
2017-12-20T13:15:28.281Z,13.35
2017-12-20T13:17:57.003Z,12.40
2017-12-20T13:20:35.082Z,14.02
2017-12-20T13:23:04.696Z,13.13
2017-12-20T13:25:39.553Z,12.98
2017-12-20T13:28:14.532Z,14.25
2017-12-20T13:30:47.059Z,12.50
2017-12-20T13:33:22.174Z,13.73
2017-12-20T13:35:58.398Z,13.45
2017-12-20T13:38:27.132Z,13.85
2017-12-20T13:40:55.922Z,14.13
2017-12-20T13:43:32.872Z,13.77
2017-12-20T13:46:09.810Z,14.48
2017-12-20T13:48:38.735Z,14.05
2017-12-20T13:51:07.450Z,14.45
2017-12-20T13:53:36.199Z,13.65
2017-12-20T13:59:13.297Z,13.65
2017-12-20T14:01:49.198Z,14.10
2017-12-20T14:04:24.159Z,12.60
2017-12-20T14:06:52.869Z,12.70
2017-12-20T14:09:22.442Z,14.60
2017-12-20T14:11:51.206Z,14.43
2017-12-20T14:14:19.967Z,13.50
2017-12-20T14:16:48.770Z,14.10
2017-12-20T14:19:18.236Z,14.87
2017-12-20T14:21:46.976Z,13.25
2017-12-20T14:24:22.133Z,14.77
2017-12-20T14:26:59.240Z,13.07
2017-12-20T14:29:29.559Z,13.38
2017-12-20T14:31:58.250Z,12.48
2017-12-20T14:34:33.285Z,14.70
2017-12-20T14:37:17.923Z,14.00
2017-12-20T14:39:46.623Z,10.32
2017-12-20T14:42:15.315Z,12.43
2017-12-20T14:44:44.003Z,10.10
2017-12-20T14:47:12.682Z,12.35
2017-12-20T14:49:41.384Z,12.05
2017-12-20T14:52:20.900Z,11.07
2017-12-20T14:54:55.854Z,13.35
2017-12-20T14:57:32.839Z,13.80
2017-12-20T15:00:01.571Z,12.60
2017-12-20T15:02:30.253Z,12.57
2017-12-20T15:05:03.054Z,9.35
2017-12-20T15:07:37.998Z,11.07
2017-12-20T15:10:06.693Z,10.73
2017-12-20T15:12:37.007Z,11.25
2017-12-20T15:15:24.260Z,14.00
2017-12-20T15:17:53.800Z,11.80
2017-12-20T15:20:23.311Z,15.52
2017-12-20T15:22:51.992Z,17.90
2017-12-20T15:25:20.671Z,25.25
2017-12-20T15:27:50.132Z,18.62
2017-12-20T15:30:25.061Z,20.30
2017-12-20T15:32:53.827Z,18.85
2017-12-20T15:35:41.607Z,16.02
2017-12-20T15:38:17.394Z,15.38
2017-12-20T15:40:52.367Z,17.10
2017-12-20T15:43:21.091Z,23.05
2017-12-20T15:45:50.653Z,13.23
2017-12-20T15:48:19.302Z,12.90
2017-12-20T15:50:47.988Z,11.27
2017-12-20T15:53:23.679Z,11.35
2017-12-20T15:55:52.358Z,18.73
2017-12-20T15:58:21.858Z,13.20
2017-12-20T16:00:50.543Z,10.75
2017-12-20T16:03:40.263Z,10.00
2017-12-20T16:06:08.952Z,10.40
2017-12-20T16:08:43.758Z,10.10
2017-12-20T16:11:13.485Z,9.65
2017-12-20T16:13:42.179Z,9.85
2017-12-20T16:16:17.254Z,10.65
2017-12-20T16:18:45.931Z,9.32
2017-12-20T16:21:14.619Z,9.40
2017-12-20T16:23:43.328Z,7.55
2017-12-20T16:26:18.137Z,9.02
2017-12-20T16:28:46.818Z,8.15
2017-12-20T16:31:21.758Z,8.68
2017-12-20T16:33:56.755Z,10.15
2017-12-20T16:36:26.199Z,9.10
2017-12-20T16:39:01.051Z,9.18
2017-12-20T16:41:29.739Z,9.95
2017-12-20T16:44:12.800Z,9.10
2017-12-20T16:46:42.269Z,9.18
2017-12-20T16:49:10.979Z,8.95
2017-12-20T16:51:40.706Z,8.70
2017-12-20T16:54:10.170Z,10.38
2017-12-20T16:56:38.863Z,10.00
2017-12-20T16:59:07.569Z,12.90
2017-12-20T17:01:37.019Z,8.93
2017-12-20T17:04:05.821Z,9.35
2017-12-20T17:06:34.515Z,10.73
2017-12-20T17:09:03.324Z,11.55
2017-12-20T17:11:33.695Z,13.23
2017-12-20T17:14:02.505Z,10.23
2017-12-20T17:16:37.331Z,9.80
2017-12-20T17:19:06.018Z,8.05
2017-12-20T17:21:41.696Z,8.70
2017-12-20T17:24:31.261Z,7.70
2017-12-20T17:27:06.129Z,5.70
2017-12-20T17:29:41.063Z,6.53
2017-12-20T17:32:09.920Z,7.93
2017-12-20T17:34:44.710Z,9.40
2017-12-20T17:37:19.614Z,9.07
2017-12-20T17:39:55.259Z,8.00
2017-12-20T17:42:30.791Z,6.65
2017-12-20T17:45:00.367Z,8.63
2017-12-20T17:47:29.045Z,8.00
2017-12-20T17:49:57.740Z,10.00
2017-12-20T17:52:28.410Z,9.65
2017-12-20T17:55:03.194Z,8.45
2017-12-20T17:57:31.842Z,7.32
2017-12-20T18:00:00.532Z,8.20
2017-12-20T18:02:35.400Z,8.45
2017-12-20T18:05:07.463Z,6.53
2017-12-20T18:07:42.272Z,6.03
2017-12-20T18:10:17.259Z,7.35
2017-12-20T18:12:52.275Z,7.53
2017-12-20T18:15:20.970Z,16.00
2017-12-20T18:17:49.652Z,14.77
2017-12-20T18:20:18.359Z,24.58
2017-12-20T18:22:53.284Z,14.02
2017-12-20T18:25:28.067Z,8.90
2017-12-20T18:28:02.883Z,10.10
2017-12-20T18:30:37.987Z,9.88
2017-12-20T18:33:07.424Z,8.43
2017-12-20T18:35:42.410Z,7.45
2017-12-20T18:38:11.103Z,6.03
2017-12-20T18:40:40.614Z,6.10
2017-12-20T18:43:15.532Z,6.47
2017-12-20T18:45:51.122Z,6.70
2017-12-20T18:48:21.860Z,8.18
2017-12-20T18:50:50.535Z,8.43
2017-12-20T18:53:19.199Z,7.85
2017-12-20T18:55:47.899Z,9.43
2017-12-20T18:58:16.606Z,8.95
2017-12-20T19:00:45.324Z,8.82
2017-12-20T19:03:14.003Z,10.73
2017-12-20T19:05:48.932Z,16.42
2017-12-20T19:08:23.935Z,15.48
2017-12-20T19:10:58.824Z,15.50
2017-12-20T19:13:27.517Z,12.15
2017-12-20T19:16:09.384Z,10.48
2017-12-20T19:18:38.082Z,8.20
2017-12-20T19:21:06.775Z,7.32
2017-12-20T19:23:35.492Z,11.40
2017-12-20T19:26:04.160Z,8.65
2017-12-20T19:28:33.608Z,7.18
2017-12-20T19:31:08.520Z,8.38
2017-12-20T19:36:49.379Z,9.80
2017-12-20T19:39:22.399Z,7.93
2017-12-20T19:42:29.645Z,7.97
2017-12-20T19:47:43.042Z,8.60
2017-12-20T19:53:10.434Z,11.10
2017-12-20T20:31:40.255Z,7.90
2017-12-20T21:04:56.351Z,14.80
2017-12-20T21:23:31.035Z,9.75
2017-12-20T21:26:08.948Z,9.23
2017-12-20T21:28:41.002Z,10.40
2017-12-20T21:31:14.851Z,13.25
2017-12-20T21:33:55.811Z,13.95
2017-12-20T21:36:29.989Z,9.90
2017-12-20T21:39:04.621Z,9.60
2017-12-20T21:44:30.343Z,10.07
2017-12-20T21:47:12.586Z,10.88
2017-12-20T21:49:55.277Z,9.40
2017-12-20T21:52:31.838Z,11.23
2017-12-20T21:55:11.471Z,11.60
2017-12-20T21:57:52.106Z,12.40
2017-12-20T22:00:28.305Z,12.45
2017-12-20T22:02:58.622Z,12.93
2017-12-20T22:05:30.576Z,16.40
2017-12-20T22:08:04.843Z,18.87
2017-12-20T22:10:33.687Z,21.35
2017-12-20T22:13:08.475Z,17.75
2017-12-20T22:15:43.322Z,18.23
2017-12-20T22:18:12.003Z,17.65
2017-12-20T22:20:46.851Z,17.55
2017-12-20T22:23:21.768Z,18.70
2017-12-20T22:25:51.435Z,18.15
2017-12-20T22:28:27.197Z,19.12
2017-12-20T22:30:55.907Z,18.05
2017-12-20T22:33:24.583Z,18.12
2017-12-20T22:35:59.543Z,13.60
2017-12-20T22:38:28.248Z,13.80
2017-12-20T22:40:56.923Z,9.55
2017-12-20T22:43:25.612Z,10.93
2017-12-20T22:45:54.297Z,12.45
2017-12-20T22:48:22.978Z,11.68
2017-12-20T22:50:52.568Z,12.90
2017-12-20T22:53:23.283Z,15.13
2017-12-20T22:55:58.341Z,16.58
2017-12-20T22:58:29.971Z,21.23
2017-12-20T23:00:58.653Z,23.42
2017-12-20T23:03:27.387Z,20.37
2017-12-20T23:06:02.379Z,20.25
2017-12-20T23:08:31.080Z,16.27
2017-12-20T23:11:01.609Z,13.60
2017-12-20T23:13:30.283Z,13.68
2017-12-20T23:15:58.978Z,14.90
2017-12-20T23:18:28.594Z,15.63
2017-12-20T23:20:57.279Z,13.80
2017-12-20T23:23:25.956Z,14.65
2017-12-20T23:25:54.850Z,13.43
2017-12-20T23:28:23.524Z,12.05
2017-12-20T23:30:52.211Z,13.02
2017-12-20T23:33:20.891Z,12.52
2017-12-20T23:35:49.631Z,13.10
2017-12-20T23:38:19.096Z,13.05
2017-12-20T23:40:54.103Z,12.15
2017-12-20T23:43:22.781Z,11.02
2017-12-20T23:45:58.479Z,11.73
2017-12-20T23:48:27.157Z,14.38
2017-12-20T23:50:58.528Z,13.73
2017-12-20T23:53:33.387Z,13.23
2017-12-20T23:56:02.113Z,14.05
2017-12-20T23:58:37.023Z,15.07
